sensor_id;sensor_type;location;lat;lon;timestamp;P1;durP1;ratioP1;P2;durP2;ratioP2
20731;SDS011;10527;52.124;5.196;2023-11-22T00:00:46;11.10;;;7.43;;
20731;SDS011;10527;52.124;5.196;2023-11-22T00:03:13;8.70;;;6.90;;
20731;SDS011;10527;52.124;5.196;2023-11-22T00:05:41;9.53;;;7.73;;
20731;SDS011;10527;52.124;5.196;2023-11-22T00:08:08;12.93;;;8.20;;
20731;SDS011;10527;52.124;5.196;2023-11-22T00:10:36;10.00;;;8.13;;
20731;SDS011;10527;52.124;5.196;2023-11-22T00:13:03;10.33;;;7.50;;
20731;SDS011;10527;52.124;5.196;2023-11-22T00:15:31;10.50;;;7.03;;
20731;SDS011;10527;52.124;5.196;2023-11-22T00:17:58;9.27;;;7.33;;
20731;SDS011;10527;52.124;5.196;2023-11-22T00:20:30;10.07;;;7.00;;
20731;SDS011;10527;52.124;5.196;2023-11-22T00:22:58;9.93;;;7.33;;
20731;SDS011;10527;52.124;5.196;2023-11-22T00:25:25;8.13;;;6.47;;
20731;SDS011;10527;52.124;5.196;2023-11-22T00:27:53;10.20;;;7.83;;
20731;SDS011;10527;52.124;5.196;2023-11-22T00:30:24;9.93;;;6.80;;
20731;SDS011;10527;52.124;5.196;2023-11-22T00:32:51;10.00;;;7.70;;
20731;SDS011;10527;52.124;5.196;2023-11-22T00:35:19;9.13;;;7.40;;
20731;SDS011;10527;52.124;5.196;2023-11-22T00:37:46;10.13;;;7.23;;
20731;SDS011;10527;52.124;5.196;2023-11-22T00:40:16;9.63;;;7.23;;
20731;SDS011;10527;52.124;5.196;2023-11-22T00:42:44;10.50;;;7.87;;
20731;SDS011;10527;52.124;5.196;2023-11-22T00:45:11;10.47;;;7.70;;
20731;SDS011;10527;52.124;5.196;2023-11-22T00:47:40;10.73;;;7.17;;
20731;SDS011;10527;52.124;5.196;2023-11-22T00:50:08;8.50;;;6.93;;
20731;SDS011;10527;52.124;5.196;2023-11-22T00:52:37;9.17;;;6.93;;
20731;SDS011;10527;52.124;5.196;2023-11-22T00:55:05;9.17;;;7.33;;
20731;SDS011;10527;52.124;5.196;2023-11-22T00:57:32;8.57;;;6.27;;
20731;SDS011;10527;52.124;5.196;2023-11-22T01:00:00;10.30;;;6.90;;
20731;SDS011;10527;52.124;5.196;2023-11-22T01:02:30;9.27;;;6.70;;
20731;SDS011;10527;52.124;5.196;2023-11-22T01:04:57;10.47;;;6.63;;
20731;SDS011;10527;52.124;5.196;2023-11-22T01:07:25;8.83;;;7.10;;
20731;SDS011;10527;52.124;5.196;2023-11-22T01:09:52;11.10;;;7.17;;
20731;SDS011;10527;52.124;5.196;2023-11-22T01:12:20;7.90;;;6.07;;
20731;SDS011;10527;52.124;5.196;2023-11-22T01:14:47;11.83;;;6.60;;
20731;SDS011;10527;52.124;5.196;2023-11-22T01:17:15;8.90;;;7.03;;
20731;SDS011;10527;52.124;5.196;2023-11-22T01:19:42;8.23;;;6.53;;
20731;SDS011;10527;52.124;5.196;2023-11-22T01:22:10;8.47;;;6.47;;
20731;SDS011;10527;52.124;5.196;2023-11-22T01:24:37;10.03;;;6.80;;
20731;SDS011;10527;52.124;5.196;2023-11-22T01:27:05;12.83;;;6.80;;
20731;SDS011;10527;52.124;5.196;2023-11-22T01:29:33;11.67;;;6.47;;
20731;SDS011;10527;52.124;5.196;2023-11-22T01:32:01;8.83;;;6.67;;
20731;SDS011;10527;52.124;5.196;2023-11-22T01:34:29;8.20;;;6.03;;
20731;SDS011;10527;52.124;5.196;2023-11-22T01:36:56;9.47;;;7.03;;
20731;SDS011;10527;52.124;5.196;2023-11-22T01:39:24;10.60;;;7.07;;
20731;SDS011;10527;52.124;5.196;2023-11-22T01:41:52;8.17;;;6.60;;
20731;SDS011;10527;52.124;5.196;2023-11-22T01:44:20;9.03;;;6.50;;
20731;SDS011;10527;52.124;5.196;2023-11-22T01:46:48;11.40;;;6.47;;
20731;SDS011;10527;52.124;5.196;2023-11-22T01:49:16;16.10;;;9.00;;
20731;SDS011;10527;52.124;5.196;2023-11-22T01:51:44;8.00;;;6.53;;
20731;SDS011;10527;52.124;5.196;2023-11-22T01:54:12;10.07;;;6.67;;
20731;SDS011;10527;52.124;5.196;2023-11-22T01:56:40;9.47;;;6.40;;
20731;SDS011;10527;52.124;5.196;2023-11-22T01:59:08;10.67;;;6.57;;
20731;SDS011;10527;52.124;5.196;2023-11-22T02:01:35;9.57;;;6.53;;
20731;SDS011;10527;52.124;5.196;2023-11-22T02:04:03;12.40;;;6.90;;
20731;SDS011;10527;52.124;5.196;2023-11-22T02:06:31;10.23;;;7.13;;
20731;SDS011;10527;52.124;5.196;2023-11-22T02:08:59;8.87;;;6.70;;
20731;SDS011;10527;52.124;5.196;2023-11-22T02:11:27;10.33;;;6.73;;
20731;SDS011;10527;52.124;5.196;2023-11-22T02:13:55;9.87;;;6.30;;
20731;SDS011;10527;52.124;5.196;2023-11-22T02:16:23;9.10;;;6.40;;
20731;SDS011;10527;52.124;5.196;2023-11-22T02:18:51;9.50;;;7.10;;
20731;SDS011;10527;52.124;5.196;2023-11-22T02:21:18;10.93;;;7.07;;
20731;SDS011;10527;52.124;5.196;2023-11-22T02:23:47;10.47;;;7.70;;
20731;SDS011;10527;52.124;5.196;2023-11-22T02:26:15;11.57;;;7.67;;
20731;SDS011;10527;52.124;5.196;2023-11-22T02:28:44;10.10;;;6.73;;
20731;SDS011;10527;52.124;5.196;2023-11-22T02:31:12;10.07;;;7.33;;
20731;SDS011;10527;52.124;5.196;2023-11-22T02:33:39;9.20;;;6.40;;
20731;SDS011;10527;52.124;5.196;2023-11-22T02:36:08;10.10;;;6.67;;
20731;SDS011;10527;52.124;5.196;2023-11-22T02:38:39;8.00;;;6.33;;
20731;SDS011;10527;52.124;5.196;2023-11-22T02:41:07;8.13;;;6.37;;
20731;SDS011;10527;52.124;5.196;2023-11-22T02:43:35;9.53;;;6.63;;
20731;SDS011;10527;52.124;5.196;2023-11-22T02:46:03;9.30;;;6.37;;
20731;SDS011;10527;52.124;5.196;2023-11-22T02:48:30;8.70;;;5.80;;
20731;SDS011;10527;52.124;5.196;2023-11-22T02:50:57;8.57;;;5.83;;
20731;SDS011;10527;52.124;5.196;2023-11-22T02:53:26;10.70;;;6.80;;
20731;SDS011;10527;52.124;5.196;2023-11-22T02:55:58;9.50;;;6.00;;
20731;SDS011;10527;52.124;5.196;2023-11-22T02:58:30;8.90;;;6.47;;
20731;SDS011;10527;52.124;5.196;2023-11-22T03:00:57;9.30;;;6.87;;
20731;SDS011;10527;52.124;5.196;2023-11-22T03:03:25;11.93;;;6.27;;
20731;SDS011;10527;52.124;5.196;2023-11-22T03:05:53;9.50;;;6.50;;
20731;SDS011;10527;52.124;5.196;2023-11-22T03:08:20;9.20;;;6.43;;
20731;SDS011;10527;52.124;5.196;2023-11-22T03:10:51;8.17;;;5.80;;
20731;SDS011;10527;52.124;5.196;2023-11-22T03:13:19;7.43;;;5.87;;
20731;SDS011;10527;52.124;5.196;2023-11-22T03:15:46;8.27;;;6.43;;
20731;SDS011;10527;52.124;5.196;2023-11-22T03:18:14;8.67;;;6.23;;
20731;SDS011;10527;52.124;5.196;2023-11-22T03:20:43;10.10;;;6.10;;
20731;SDS011;10527;52.124;5.196;2023-11-22T03:23:11;9.63;;;6.33;;
20731;SDS011;10527;52.124;5.196;2023-11-22T03:25:39;7.67;;;5.93;;
20731;SDS011;10527;52.124;5.196;2023-11-22T03:28:06;8.70;;;5.60;;
20731;SDS011;10527;52.124;5.196;2023-11-22T03:30:34;7.13;;;5.80;;
20731;SDS011;10527;52.124;5.196;2023-11-22T03:33:01;8.80;;;6.80;;
20731;SDS011;10527;52.124;5.196;2023-11-22T03:35:29;8.93;;;5.93;;
20731;SDS011;10527;52.124;5.196;2023-11-22T03:37:57;7.60;;;6.10;;
20731;SDS011;10527;52.124;5.196;2023-11-22T03:40:25;7.07;;;5.67;;
20731;SDS011;10527;52.124;5.196;2023-11-22T03:42:52;7.83;;;5.37;;
20731;SDS011;10527;52.124;5.196;2023-11-22T03:45:20;9.93;;;5.97;;
20731;SDS011;10527;52.124;5.196;2023-11-22T03:47:47;8.17;;;6.00;;
20731;SDS011;10527;52.124;5.196;2023-11-22T03:50:16;8.53;;;6.00;;
20731;SDS011;10527;52.124;5.196;2023-11-22T03:52:43;7.83;;;6.37;;
20731;SDS011;10527;52.124;5.196;2023-11-22T03:55:11;7.60;;;5.93;;
20731;SDS011;10527;52.124;5.196;2023-11-22T03:57:38;8.53;;;5.57;;
20731;SDS011;10527;52.124;5.196;2023-11-22T04:00:06;8.37;;;5.87;;
20731;SDS011;10527;52.124;5.196;2023-11-22T04:02:35;6.73;;;5.37;;
20731;SDS011;10527;52.124;5.196;2023-11-22T04:05:05;9.03;;;6.17;;
20731;SDS011;10527;52.124;5.196;2023-11-22T04:07:34;8.50;;;6.80;;
20731;SDS011;10527;52.124;5.196;2023-11-22T04:10:01;9.63;;;5.87;;
20731;SDS011;10527;52.124;5.196;2023-11-22T04:12:30;9.53;;;6.47;;
20731;SDS011;10527;52.124;5.196;2023-11-22T04:15:01;7.47;;;5.60;;
20731;SDS011;10527;52.124;5.196;2023-11-22T04:17:29;6.13;;;5.40;;
20731;SDS011;10527;52.124;5.196;2023-11-22T04:19:57;10.10;;;7.00;;
20731;SDS011;10527;52.124;5.196;2023-11-22T04:22:24;8.57;;;6.57;;
20731;SDS011;10527;52.124;5.196;2023-11-22T04:24:52;9.33;;;7.30;;
20731;SDS011;10527;52.124;5.196;2023-11-22T04:27:19;9.57;;;7.20;;
20731;SDS011;10527;52.124;5.196;2023-11-22T04:29:46;9.00;;;6.70;;
20731;SDS011;10527;52.124;5.196;2023-11-22T04:32:14;8.80;;;6.70;;
20731;SDS011;10527;52.124;5.196;2023-11-22T04:34:41;10.33;;;7.37;;
20731;SDS011;10527;52.124;5.196;2023-11-22T04:37:09;11.60;;;6.73;;
20731;SDS011;10527;52.124;5.196;2023-11-22T04:39:36;10.53;;;7.30;;
20731;SDS011;10527;52.124;5.196;2023-11-22T04:42:04;9.47;;;7.50;;
20731;SDS011;10527;52.124;5.196;2023-11-22T04:44:32;9.93;;;7.60;;
20731;SDS011;10527;52.124;5.196;2023-11-22T04:46:59;9.97;;;7.27;;
20731;SDS011;10527;52.124;5.196;2023-11-22T04:49:27;10.43;;;7.43;;
20731;SDS011;10527;52.124;5.196;2023-11-22T04:51:54;10.67;;;7.47;;
20731;SDS011;10527;52.124;5.196;2023-11-22T04:54:22;9.40;;;7.30;;
20731;SDS011;10527;52.124;5.196;2023-11-22T04:56:50;13.27;;;7.93;;
20731;SDS011;10527;52.124;5.196;2023-11-22T04:59:21;8.83;;;6.73;;
20731;SDS011;10527;52.124;5.196;2023-11-22T05:01:49;8.43;;;6.37;;
20731;SDS011;10527;52.124;5.196;2023-11-22T05:04:16;10.07;;;7.60;;
20731;SDS011;10527;52.124;5.196;2023-11-22T05:06:45;8.87;;;7.67;;
20731;SDS011;10527;52.124;5.196;2023-11-22T05:09:12;8.37;;;6.60;;
20731;SDS011;10527;52.124;5.196;2023-11-22T05:11:40;8.60;;;6.90;;
20731;SDS011;10527;52.124;5.196;2023-11-22T05:14:08;9.03;;;6.77;;
20731;SDS011;10527;52.124;5.196;2023-11-22T05:16:36;9.83;;;7.27;;
20731;SDS011;10527;52.124;5.196;2023-11-22T05:19:03;8.43;;;6.60;;
20731;SDS011;10527;52.124;5.196;2023-11-22T05:21:32;10.40;;;7.57;;
20731;SDS011;10527;52.124;5.196;2023-11-22T05:23:59;10.20;;;7.70;;
20731;SDS011;10527;52.124;5.196;2023-11-22T05:26:26;8.73;;;7.03;;
20731;SDS011;10527;52.124;5.196;2023-11-22T05:28:54;9.03;;;6.80;;
20731;SDS011;10527;52.124;5.196;2023-11-22T05:31:22;9.43;;;6.30;;
20731;SDS011;10527;52.124;5.196;2023-11-22T05:33:49;9.13;;;6.70;;
20731;SDS011;10527;52.124;5.196;2023-11-22T05:36:17;8.37;;;6.70;;
20731;SDS011;10527;52.124;5.196;2023-11-22T05:38:44;8.27;;;6.30;;
20731;SDS011;10527;52.124;5.196;2023-11-22T05:41:11;10.83;;;7.60;;
20731;SDS011;10527;52.124;5.196;2023-11-22T05:43:39;10.60;;;7.60;;
20731;SDS011;10527;52.124;5.196;2023-11-22T05:46:08;9.70;;;6.93;;
20731;SDS011;10527;52.124;5.196;2023-11-22T05:48:38;10.83;;;8.20;;
20731;SDS011;10527;52.124;5.196;2023-11-22T05:51:06;9.80;;;7.43;;
20731;SDS011;10527;52.124;5.196;2023-11-22T05:53:35;13.47;;;7.23;;
20731;SDS011;10527;52.124;5.196;2023-11-22T05:56:03;8.90;;;7.13;;
20731;SDS011;10527;52.124;5.196;2023-11-22T05:58:33;9.37;;;7.50;;
20731;SDS011;10527;52.124;5.196;2023-11-22T06:01:05;9.53;;;7.53;;
20731;SDS011;10527;52.124;5.196;2023-11-22T06:03:32;9.73;;;7.33;;
20731;SDS011;10527;52.124;5.196;2023-11-22T06:06:01;13.03;;;7.97;;
20731;SDS011;10527;52.124;5.196;2023-11-22T06:08:31;10.73;;;8.20;;
20731;SDS011;10527;52.124;5.196;2023-11-22T06:10:59;11.23;;;7.53;;
20731;SDS011;10527;52.124;5.196;2023-11-22T06:13:27;9.63;;;7.50;;
20731;SDS011;10527;52.124;5.196;2023-11-22T06:15:54;9.17;;;7.57;;
20731;SDS011;10527;52.124;5.196;2023-11-22T06:18:22;14.53;;;8.17;;
20731;SDS011;10527;52.124;5.196;2023-11-22T06:20:57;12.73;;;8.27;;
20731;SDS011;10527;52.124;5.196;2023-11-22T06:23:25;12.50;;;8.40;;
20731;SDS011;10527;52.124;5.196;2023-11-22T06:25:52;11.20;;;8.27;;
20731;SDS011;10527;52.124;5.196;2023-11-22T06:28:20;11.47;;;8.17;;
20731;SDS011;10527;52.124;5.196;2023-11-22T06:30:49;10.87;;;7.97;;
20731;SDS011;10527;52.124;5.196;2023-11-22T06:33:17;10.93;;;8.33;;
20731;SDS011;10527;52.124;5.196;2023-11-22T06:35:44;12.07;;;8.53;;
20731;SDS011;10527;52.124;5.196;2023-11-22T06:38:12;11.57;;;8.13;;
20731;SDS011;10527;52.124;5.196;2023-11-22T06:40:39;11.27;;;8.10;;
20731;SDS011;10527;52.124;5.196;2023-11-22T06:43:07;11.17;;;8.57;;
20731;SDS011;10527;52.124;5.196;2023-11-22T06:45:34;10.83;;;8.13;;
20731;SDS011;10527;52.124;5.196;2023-11-22T06:48:02;11.87;;;8.13;;
20731;SDS011;10527;52.124;5.196;2023-11-22T06:50:30;10.57;;;8.10;;
20731;SDS011;10527;52.124;5.196;2023-11-22T06:52:57;15.93;;;11.98;;
20731;SDS011;10527;52.124;5.196;2023-11-22T06:55:25;13.20;;;8.77;;
20731;SDS011;10527;52.124;5.196;2023-11-22T06:57:53;11.27;;;9.03;;
20731;SDS011;10527;52.124;5.196;2023-11-22T07:00:21;13.43;;;8.63;;
20731;SDS011;10527;52.124;5.196;2023-11-22T07:02:48;10.90;;;7.87;;
20731;SDS011;10527;52.124;5.196;2023-11-22T07:05:16;11.73;;;8.30;;
20731;SDS011;10527;52.124;5.196;2023-11-22T07:07:46;14.10;;;8.60;;
20731;SDS011;10527;52.124;5.196;2023-11-22T07:10:16;10.27;;;8.10;;
20731;SDS011;10527;52.124;5.196;2023-11-22T07:12:49;11.17;;;8.50;;
20731;SDS011;10527;52.124;5.196;2023-11-22T07:15:17;15.53;;;9.13;;
20731;SDS011;10527;52.124;5.196;2023-11-22T07:17:45;11.40;;;9.30;;
20731;SDS011;10527;52.124;5.196;2023-11-22T07:20:15;11.00;;;8.67;;
20731;SDS011;10527;52.124;5.196;2023-11-22T07:22:43;11.33;;;8.17;;
20731;SDS011;10527;52.124;5.196;2023-11-22T07:25:11;13.53;;;8.57;;
20731;SDS011;10527;52.124;5.196;2023-11-22T07:27:45;11.23;;;8.77;;
20731;SDS011;10527;52.124;5.196;2023-11-22T07:30:13;11.67;;;8.50;;
20731;SDS011;10527;52.124;5.196;2023-11-22T07:32:42;13.27;;;9.70;;
20731;SDS011;10527;52.124;5.196;2023-11-22T07:35:10;11.50;;;8.60;;
20731;SDS011;10527;52.124;5.196;2023-11-22T07:37:39;11.40;;;8.23;;
20731;SDS011;10527;52.124;5.196;2023-11-22T07:40:09;10.70;;;8.13;;
20731;SDS011;10527;52.124;5.196;2023-11-22T07:42:40;12.20;;;8.53;;
20731;SDS011;10527;52.124;5.196;2023-11-22T07:45:10;10.00;;;8.03;;
20731;SDS011;10527;52.124;5.196;2023-11-22T07:47:38;11.83;;;8.30;;
20731;SDS011;10527;52.124;5.196;2023-11-22T07:50:11;10.27;;;7.90;;
20731;SDS011;10527;52.124;5.196;2023-11-22T07:52:38;11.50;;;8.53;;
20731;SDS011;10527;52.124;5.196;2023-11-22T07:55:08;11.87;;;8.47;;
20731;SDS011;10527;52.124;5.196;2023-11-22T07:57:38;10.33;;;8.47;;
20731;SDS011;10527;52.124;5.196;2023-11-22T08:00:05;15.10;;;8.97;;
20731;SDS011;10527;52.124;5.196;2023-11-22T08:02:34;10.77;;;8.27;;
20731;SDS011;10527;52.124;5.196;2023-11-22T08:05:05;16.07;;;10.70;;
20731;SDS011;10527;52.124;5.196;2023-11-22T08:07:38;22.47;;;16.73;;
20731;SDS011;10527;52.124;5.196;2023-11-22T08:10:08;18.20;;;14.27;;
20731;SDS011;10527;52.124;5.196;2023-11-22T08:12:47;16.70;;;11.90;;
20731;SDS011;10527;52.124;5.196;2023-11-22T08:15:18;14.73;;;10.73;;
20731;SDS011;10527;52.124;5.196;2023-11-22T08:17:46;11.87;;;9.10;;
20731;SDS011;10527;52.124;5.196;2023-11-22T08:20:14;13.10;;;9.37;;
20731;SDS011;10527;52.124;5.196;2023-11-22T08:22:45;13.20;;;8.60;;
20731;SDS011;10527;52.124;5.196;2023-11-22T08:25:17;12.87;;;8.23;;
20731;SDS011;10527;52.124;5.196;2023-11-22T08:27:45;15.67;;;9.30;;
20731;SDS011;10527;52.124;5.196;2023-11-22T08:30:13;12.70;;;9.17;;
20731;SDS011;10527;52.124;5.196;2023-11-22T08:32:43;12.17;;;8.83;;
20731;SDS011;10527;52.124;5.196;2023-11-22T08:35:15;9.83;;;7.67;;
20731;SDS011;10527;52.124;5.196;2023-11-22T08:37:43;13.37;;;8.97;;
20731;SDS011;10527;52.124;5.196;2023-11-22T08:40:12;11.83;;;9.00;;
20731;SDS011;10527;52.124;5.196;2023-11-22T08:42:42;13.23;;;9.40;;
20731;SDS011;10527;52.124;5.196;2023-11-22T08:45:11;13.43;;;9.37;;
20731;SDS011;10527;52.124;5.196;2023-11-22T08:47:39;13.53;;;9.43;;
20731;SDS011;10527;52.124;5.196;2023-11-22T08:50:08;12.97;;;8.33;;
20731;SDS011;10527;52.124;5.196;2023-11-22T08:52:39;13.77;;;9.53;;
20731;SDS011;10527;52.124;5.196;2023-11-22T08:55:12;11.83;;;9.27;;
20731;SDS011;10527;52.124;5.196;2023-11-22T08:57:41;14.67;;;10.37;;
20731;SDS011;10527;52.124;5.196;2023-11-22T09:00:09;13.97;;;10.17;;
20731;SDS011;10527;52.124;5.196;2023-11-22T09:02:40;13.43;;;9.60;;
20731;SDS011;10527;52.124;5.196;2023-11-22T09:05:08;13.10;;;9.90;;
20731;SDS011;10527;52.124;5.196;2023-11-22T09:07:39;12.53;;;9.67;;
20731;SDS011;10527;52.124;5.196;2023-11-22T09:10:07;12.93;;;9.70;;
20731;SDS011;10527;52.124;5.196;2023-11-22T09:12:39;13.53;;;9.93;;
20731;SDS011;10527;52.124;5.196;2023-11-22T09:15:12;13.33;;;10.63;;
20731;SDS011;10527;52.124;5.196;2023-11-22T09:17:43;14.93;;;10.17;;
20731;SDS011;10527;52.124;5.196;2023-11-22T09:20:13;15.27;;;10.83;;
20731;SDS011;10527;52.124;5.196;2023-11-22T09:22:44;14.23;;;10.37;;
20731;SDS011;10527;52.124;5.196;2023-11-22T09:25:16;15.77;;;11.00;;
20731;SDS011;10527;52.124;5.196;2023-11-22T09:27:46;15.83;;;11.97;;
20731;SDS011;10527;52.124;5.196;2023-11-22T09:30:15;14.43;;;10.97;;
20731;SDS011;10527;52.124;5.196;2023-11-22T09:32:47;13.87;;;10.93;;
20731;SDS011;10527;52.124;5.196;2023-11-22T09:35:14;15.77;;;10.93;;
20731;SDS011;10527;52.124;5.196;2023-11-22T09:37:42;13.93;;;10.70;;
20731;SDS011;10527;52.124;5.196;2023-11-22T09:40:11;17.83;;;11.63;;
20731;SDS011;10527;52.124;5.196;2023-11-22T09:42:41;17.53;;;11.53;;
20731;SDS011;10527;52.124;5.196;2023-11-22T09:45:09;15.07;;;11.20;;
20731;SDS011;10527;52.124;5.196;2023-11-22T09:47:37;17.47;;;12.30;;
20731;SDS011;10527;52.124;5.196;2023-11-22T09:50:06;16.47;;;11.83;;
20731;SDS011;10527;52.124;5.196;2023-11-22T09:52:36;18.23;;;12.23;;
20731;SDS011;10527;52.124;5.196;2023-11-22T09:55:05;18.10;;;12.27;;
20731;SDS011;10527;52.124;5.196;2023-11-22T09:57:33;17.63;;;12.73;;
20731;SDS011;10527;52.124;5.196;2023-11-22T10:00:03;17.27;;;11.93;;
20731;SDS011;10527;52.124;5.196;2023-11-22T10:02:36;17.00;;;12.30;;
20731;SDS011;10527;52.124;5.196;2023-11-22T10:05:05;17.07;;;11.90;;
20731;SDS011;10527;52.124;5.196;2023-11-22T10:07:32;18.07;;;12.30;;
20731;SDS011;10527;52.124;5.196;2023-11-22T10:10:02;15.53;;;11.63;;
20731;SDS011;10527;52.124;5.196;2023-11-22T10:12:32;15.00;;;11.17;;
20731;SDS011;10527;52.124;5.196;2023-11-22T10:15:12;15.50;;;11.67;;
20731;SDS011;10527;52.124;5.196;2023-11-22T10:17:47;17.13;;;12.53;;
20731;SDS011;10527;52.124;5.196;2023-11-22T10:20:38;17.80;;;12.83;;
20731;SDS011;10527;52.124;5.196;2023-11-22T10:23:16;17.73;;;12.27;;
20731;SDS011;10527;52.124;5.196;2023-11-22T10:25:47;17.53;;;11.37;;
20731;SDS011;10527;52.124;5.196;2023-11-22T10:28:26;16.83;;;12.20;;
20731;SDS011;10527;52.124;5.196;2023-11-22T10:30:54;14.40;;;10.83;;
20731;SDS011;10527;52.124;5.196;2023-11-22T10:33:23;16.70;;;12.17;;
20731;SDS011;10527;52.124;5.196;2023-11-22T10:35:54;16.30;;;11.50;;
20731;SDS011;10527;52.124;5.196;2023-11-22T10:38:21;16.83;;;13.13;;
20731;SDS011;10527;52.124;5.196;2023-11-22T10:40:48;18.73;;;12.03;;
20731;SDS011;10527;52.124;5.196;2023-11-22T10:43:18;15.87;;;12.27;;
20731;SDS011;10527;52.124;5.196;2023-11-22T10:45:49;15.67;;;12.33;;
20731;SDS011;10527;52.124;5.196;2023-11-22T10:48:19;18.63;;;13.43;;
20731;SDS011;10527;52.124;5.196;2023-11-22T10:50:51;18.00;;;13.10;;
20731;SDS011;10527;52.124;5.196;2023-11-22T10:53:21;17.17;;;13.17;;
20731;SDS011;10527;52.124;5.196;2023-11-22T10:55:58;17.50;;;12.80;;
20731;SDS011;10527;52.124;5.196;2023-11-22T10:58:51;17.47;;;13.30;;
20731;SDS011;10527;52.124;5.196;2023-11-22T11:01:26;17.37;;;13.23;;
20731;SDS011;10527;52.124;5.196;2023-11-22T11:04:01;17.30;;;12.50;;
20731;SDS011;10527;52.124;5.196;2023-11-22T11:06:40;17.03;;;12.40;;
20731;SDS011;10527;52.124;5.196;2023-11-22T11:09:15;14.83;;;11.87;;
20731;SDS011;10527;52.124;5.196;2023-11-22T11:11:51;17.10;;;13.23;;
20731;SDS011;10527;52.124;5.196;2023-11-22T11:14:19;16.17;;;12.13;;
20731;SDS011;10527;52.124;5.196;2023-11-22T11:16:46;15.67;;;12.13;;
20731;SDS011;10527;52.124;5.196;2023-11-22T11:19:16;15.93;;;12.23;;
20731;SDS011;10527;52.124;5.196;2023-11-22T11:21:44;17.70;;;12.30;;
20731;SDS011;10527;52.124;5.196;2023-11-22T11:24:14;16.60;;;12.07;;
20731;SDS011;10527;52.124;5.196;2023-11-22T11:26:48;16.00;;;12.27;;
20731;SDS011;10527;52.124;5.196;2023-11-22T11:29:30;14.87;;;11.43;;
20731;SDS011;10527;52.124;5.196;2023-11-22T11:31:59;19.20;;;13.10;;
20731;SDS011;10527;52.124;5.196;2023-11-22T11:34:28;16.47;;;12.37;;
20731;SDS011;10527;52.124;5.196;2023-11-22T11:36:56;17.00;;;12.57;;
20731;SDS011;10527;52.124;5.196;2023-11-22T11:39:27;17.87;;;13.27;;
20731;SDS011;10527;52.124;5.196;2023-11-22T11:42:09;15.77;;;12.10;;
20731;SDS011;10527;52.124;5.196;2023-11-22T11:45:17;15.30;;;12.10;;
20731;SDS011;10527;52.124;5.196;2023-11-22T11:47:37;19.03;;;13.37;;
20731;SDS011;10527;52.124;5.196;2023-11-22T11:50:05;18.70;;;13.10;;
20731;SDS011;10527;52.124;5.196;2023-11-22T11:52:33;15.40;;;11.90;;
20731;SDS011;10527;52.124;5.196;2023-11-22T11:55:02;20.10;;;13.43;;
20731;SDS011;10527;52.124;5.196;2023-11-22T11:57:33;18.13;;;14.27;;
20731;SDS011;10527;52.124;5.196;2023-11-22T12:00:02;16.80;;;12.97;;
20731;SDS011;10527;52.124;5.196;2023-11-22T12:02:32;19.80;;;13.67;;
20731;SDS011;10527;52.124;5.196;2023-11-22T12:05:00;16.60;;;12.63;;
20731;SDS011;10527;52.124;5.196;2023-11-22T12:07:35;19.43;;;12.83;;
20731;SDS011;10527;52.124;5.196;2023-11-22T12:10:03;17.27;;;13.63;;
20731;SDS011;10527;52.124;5.196;2023-11-22T12:12:35;17.73;;;12.87;;
20731;SDS011;10527;52.124;5.196;2023-11-22T12:15:03;18.63;;;13.97;;
20731;SDS011;10527;52.124;5.196;2023-11-22T12:17:33;15.30;;;12.40;;
20731;SDS011;10527;52.124;5.196;2023-11-22T12:20:09;17.20;;;12.43;;
20731;SDS011;10527;52.124;5.196;2023-11-22T12:22:38;16.40;;;13.33;;
20731;SDS011;10527;52.124;5.196;2023-11-22T12:25:07;17.63;;;13.43;;
20731;SDS011;10527;52.124;5.196;2023-11-22T12:27:38;15.30;;;11.90;;
20731;SDS011;10527;52.124;5.196;2023-11-22T12:30:26;17.03;;;13.50;;
20731;SDS011;10527;52.124;5.196;2023-11-22T12:32:55;17.43;;;13.27;;
20731;SDS011;10527;52.124;5.196;2023-11-22T12:35:22;17.10;;;12.90;;
20731;SDS011;10527;52.124;5.196;2023-11-22T12:37:52;18.07;;;12.60;;
20731;SDS011;10527;52.124;5.196;2023-11-22T12:40:21;14.70;;;11.93;;
20731;SDS011;10527;52.124;5.196;2023-11-22T12:42:49;16.30;;;11.77;;
20731;SDS011;10527;52.124;5.196;2023-11-22T12:45:18;16.97;;;12.10;;
20731;SDS011;10527;52.124;5.196;2023-11-22T12:47:46;16.10;;;12.40;;
20731;SDS011;10527;52.124;5.196;2023-11-22T12:55:41;14.77;;;11.23;;
20731;SDS011;10527;52.124;5.196;2023-11-22T12:58:14;16.07;;;12.33;;
20731;SDS011;10527;52.124;5.196;2023-11-22T13:00:43;17.93;;;12.50;;
20731;SDS011;10527;52.124;5.196;2023-11-22T13:03:12;16.33;;;12.10;;
20731;SDS011;10527;52.124;5.196;2023-11-22T13:05:41;16.80;;;12.83;;
20731;SDS011;10527;52.124;5.196;2023-11-22T13:08:12;17.27;;;13.17;;
20731;SDS011;10527;52.124;5.196;2023-11-22T13:10:40;16.17;;;12.53;;
20731;SDS011;10527;52.124;5.196;2023-11-22T13:13:13;14.70;;;11.60;;
20731;SDS011;10527;52.124;5.196;2023-11-22T13:15:41;14.70;;;12.03;;
20731;SDS011;10527;52.124;5.196;2023-11-22T13:18:09;16.37;;;11.97;;
20731;SDS011;10527;52.124;5.196;2023-11-22T13:20:36;17.33;;;13.07;;
20731;SDS011;10527;52.124;5.196;2023-11-22T13:23:07;15.73;;;13.30;;
20731;SDS011;10527;52.124;5.196;2023-11-22T13:25:35;18.67;;;13.27;;
20731;SDS011;10527;52.124;5.196;2023-11-22T13:28:03;17.77;;;13.03;;
20731;SDS011;10527;52.124;5.196;2023-11-22T13:30:33;16.17;;;12.67;;
20731;SDS011;10527;52.124;5.196;2023-11-22T13:33:01;16.33;;;12.13;;
20731;SDS011;10527;52.124;5.196;2023-11-22T13:35:30;17.50;;;14.17;;
20731;SDS011;10527;52.124;5.196;2023-11-22T13:37:58;19.47;;;13.43;;
20731;SDS011;10527;52.124;5.196;2023-11-22T13:40:27;17.93;;;13.67;;
20731;SDS011;10527;52.124;5.196;2023-11-22T13:42:59;16.10;;;12.30;;
20731;SDS011;10527;52.124;5.196;2023-11-22T13:45:26;19.03;;;13.57;;
20731;SDS011;10527;52.124;5.196;2023-11-22T13:47:55;18.77;;;14.43;;
20731;SDS011;10527;52.124;5.196;2023-11-22T13:50:33;16.67;;;13.60;;
20731;SDS011;10527;52.124;5.196;2023-11-22T13:53:01;18.40;;;14.43;;
20731;SDS011;10527;52.124;5.196;2023-11-22T13:55:30;16.73;;;13.73;;
20731;SDS011;10527;52.124;5.196;2023-11-22T13:57:59;14.70;;;11.97;;
20731;SDS011;10527;52.124;5.196;2023-11-22T14:00:27;20.67;;;13.83;;
20731;SDS011;10527;52.124;5.196;2023-11-22T14:03:00;20.00;;;14.30;;
20731;SDS011;10527;52.124;5.196;2023-11-22T14:05:34;18.53;;;13.73;;
20731;SDS011;10527;52.124;5.196;2023-11-22T14:08:05;18.57;;;13.80;;
20731;SDS011;10527;52.124;5.196;2023-11-22T14:10:33;20.17;;;15.17;;
20731;SDS011;10527;52.124;5.196;2023-11-22T14:13:01;18.93;;;14.60;;
20731;SDS011;10527;52.124;5.196;2023-11-22T14:15:30;18.50;;;13.77;;
20731;SDS011;10527;52.124;5.196;2023-11-22T14:17:58;18.80;;;14.03;;
20731;SDS011;10527;52.124;5.196;2023-11-22T14:20:26;16.40;;;12.57;;
20731;SDS011;10527;52.124;5.196;2023-11-22T14:22:56;17.07;;;12.43;;
20731;SDS011;10527;52.124;5.196;2023-11-22T14:25:23;18.17;;;12.53;;
20731;SDS011;10527;52.124;5.196;2023-11-22T14:27:51;14.83;;;11.63;;
20731;SDS011;10527;52.124;5.196;2023-11-22T14:30:21;14.97;;;11.00;;
20731;SDS011;10527;52.124;5.196;2023-11-22T14:32:51;14.00;;;10.50;;
20731;SDS011;10527;52.124;5.196;2023-11-22T14:35:20;14.20;;;10.47;;
20731;SDS011;10527;52.124;5.196;2023-11-22T14:37:49;14.00;;;10.63;;
20731;SDS011;10527;52.124;5.196;2023-11-22T14:40:19;13.80;;;10.77;;
20731;SDS011;10527;52.124;5.196;2023-11-22T14:42:47;13.00;;;10.43;;
20731;SDS011;10527;52.124;5.196;2023-11-22T14:45:16;14.77;;;10.87;;
20731;SDS011;10527;52.124;5.196;2023-11-22T14:47:46;12.83;;;9.77;;
20731;SDS011;10527;52.124;5.196;2023-11-22T14:50:17;14.53;;;11.50;;